Terminal Aerodrome Forecast
Issued by NWS

Home | Current Version | Previous Version | Text Only | Print | Product List | Glossary On
Versions: 1 2 3 4 5 6 7 8 9 10 11 12 13 14 15
000
FTUS42 KTAE 271720
TAFVLD
TAF
KVLD 271720Z 2718/2818 04005KT P6SM SCT040
      TEMPO 2720/2724 4SM TSRA BKN040CB
     FM280000 VRB03KT P6SM OVC100
     FM281200 10007KT P6SM SCT040 BKN100=

USA.gov is the U.S. government's official web portal to all federal, state and local government web resources and services.